ICT,Max TemperatureF,Mean TemperatureF,Min TemperatureF,Max Dew PointF,MeanDew PointF,Min DewpointF,Max Humidity, Mean Humidity, Min Humidity, Max Sea Level PressureIn, Mean Sea Level PressureIn, Min Sea Level PressureIn, Max VisibilityMiles, Mean VisibilityMiles, Min VisibilityMiles, Max Wind SpeedMPH, Mean Wind SpeedMPH, Max Gust SpeedMPH,PrecipitationIn, CloudCover, Events, WindDirDegrees
2013-10-1,86,80,75,75,74,72,94,83,66,29.80,29.73,29.68,6,5,2,12,3,,0.00,6,Rain-Thunderstorm,291
2013-10-2,86,82,77,77,75,72,94,85,66,29.89,29.81,29.74,6,5,3,9,2,,0.00,6,Rain-Thunderstorm,327
2013-10-3,86,80,75,77,74,70,94,86,70,29.89,29.82,29.74,5,3,1,9,4,,0.00,6,Rain-Thunderstorm,7
2013-10-4,82,78,73,75,74,72,94,90,79,29.86,29.79,29.74,4,2,0,12,4,,0.00,6,Rain-Thunderstorm,5
2013-10-5,86,80,73,77,74,72,94,86,70,29.80,29.75,29.68,1,1,1,12,6,,0.00,6,Rain-Thunderstorm,16
2013-10-6,82,78,75,77,74,73,94,90,79,29.77,29.71,29.65,5,2,0,9,5,,0.00,6,Rain,65
2013-10-7,80,78,75,75,74,73,94,90,79,29.80,29.74,29.68,4,3,1,12,5,,0.00,6,Rain,142
2013-10-8,82,78,73,75,73,70,94,87,74,29.86,29.81,29.74,4,3,2,7,3,,0.00,6,Rain,113
2013-10-9,86,80,73,75,73,70,94,84,62,29.89,29.83,29.77,6,4,2,41,4,,0.00,5,Rain-Thunderstorm,252
2013-10-10,87,81,75,77,75,72,94,81,62,29.89,29.85,29.80,6,6,4,7,3,,0.00,5,Rain-Thunderstorm,290
2013-10-11,91,84,77,79,76,73,94,78,59,29.89,29.82,29.74,6,4,2,9,2,,0.00,6,,338
2013-10-12,93,84,75,77,74,70,94,75,49,29.83,29.78,29.71,2,1,1,9,3,,0.00,5,,8
2013-10-13,93,85,77,77,75,72,89,75,55,29.83,29.77,29.71,2,1,1,12,4,,0.00,5,Thunderstorm,13
2013-10-14,91,82,73,79,76,72,94,80,59,29.83,29.75,29.68,4,2,1,9,4,,0.00,6,Rain-Thunderstorm,356
2013-10-15,91,83,75,79,77,73,94,80,63,29.77,29.73,29.65,3,2,1,9,3,,0.00,6,Rain-Thunderstorm,13
2013-10-16,78,76,73,75,73,72,94,90,83,29.83,29.75,29.65,2,2,1,16,3,,0.00,6,Rain-Thunderstorm,3
2013-10-17,87,82,77,77,75,73,89,84,70,29.86,29.81,29.74,6,4,2,12,3,,0.00,6,Rain-Thunderstorm,189
2013-10-18,87,81,75,77,75,73,94,81,66,29.89,29.85,29.77,6,5,3,9,2,,0.00,6,,175
2013-10-19,86,80,75,75,74,70,94,82,58,29.92,29.86,29.83,6,5,3,7,3,,0.00,6,Rain-Thunderstorm,11
2013-10-20,91,83,75,77,74,72,94,84,59,29.89,29.84,29.77,6,5,2,7,4,,0.00,6,Rain-Thunderstorm,4
2013-10-21,89,82,75,75,74,72,94,79,58,29.86,29.82,29.77,6,5,4,9,4,,0.00,6,Rain-Thunderstorm,8
2013-10-22,89,81,73,77,73,72,94,80,58,29.92,29.85,29.80,6,4,2,9,4,,0.00,5,Thunderstorm,13
2013-10-23,91,83,75,77,73,70,94,78,52,29.92,29.85,29.80,4,3,2,7,4,,0.00,6,Thunderstorm,25
2013-10-24,91,83,75,75,73,68,94,76,49,29.92,29.85,29.77,4,3,2,9,4,,0.00,6,Rain-Thunderstorm,342
2013-10-25,89,82,75,77,74,72,94,79,58,29.92,29.86,29.80,4,2,1,7,3,,0.00,6,Rain-Thunderstorm,28
2013-10-26,91,82,73,75,71,66,94,72,43,29.95,29.88,29.83,2,2,1,7,4,,0.00,6,Rain-Thunderstorm,57
2013-10-27,91,82,73,73,70,66,89,70,46,29.92,29.88,29.83,2,1,1,7,4,,0.00,5,,38
2013-10-28,87,80,73,75,73,70,94,76,55,29.95,29.90,29.83,2,2,1,7,3,,0.00,4,,163
2013-10-29,89,82,75,75,73,68,94,77,49,29.95,29.91,29.86,3,2,1,9,2,,0.00,5,,167
2013-10-30,93,84,75,79,75,68,94,81,49,29.95,29.88,29.80,3,2,1,9,3,,0.00,5,Rain,21
2013-10-31,91,84,77,79,75,72,94,76,52,29.92,29.87,29.80,5,2,1,7,3,,0.00,4,Rain-Thunderstorm,7